createdAt,value
2023-02-21T00:01:35.421Z,15.38
2023-02-21T00:04:20.312Z,16.90
2023-02-21T00:07:05.483Z,16.45
2023-02-21T00:09:50.386Z,15.27
2023-02-21T00:12:35.139Z,10.48
2023-02-21T00:15:19.738Z,14.27
2023-02-21T00:18:04.526Z,9.45
2023-02-21T00:20:49.144Z,9.18
2023-02-21T00:23:34.011Z,15.43
2023-02-21T00:26:18.672Z,12.88
2023-02-21T00:29:03.435Z,12.60
2023-02-21T00:31:48.182Z,13.80
2023-02-21T00:34:32.910Z,8.52
2023-02-21T00:37:17.734Z,10.73
2023-02-21T00:40:02.499Z,13.75
2023-02-21T00:42:47.295Z,11.18
2023-02-21T00:45:32.334Z,10.65
2023-02-21T00:48:17.414Z,10.70
2023-02-21T00:51:02.763Z,12.10
2023-02-21T00:53:47.818Z,9.90
2023-02-21T00:56:32.522Z,8.32
2023-02-21T00:59:17.310Z,11.38
2023-02-21T01:02:02.061Z,10.90
2023-02-21T01:04:47.269Z,11.95
2023-02-21T01:07:32.470Z,8.15
2023-02-21T01:10:17.177Z,14.55
2023-02-21T01:13:01.868Z,17.00
2023-02-21T01:15:46.521Z,12.93
2023-02-21T01:18:31.512Z,14.27
2023-02-21T01:21:16.222Z,15.05
2023-02-21T01:24:01.326Z,10.82
2023-02-21T01:26:45.969Z,10.82
2023-02-21T01:29:30.643Z,15.77
2023-02-21T01:32:16.055Z,14.68
2023-02-21T01:35:00.897Z,9.52
2023-02-21T01:37:45.540Z,14.75
2023-02-21T01:40:34.369Z,11.90
2023-02-21T01:43:19.169Z,14.15
2023-02-21T01:46:11.966Z,16.33
2023-02-21T01:48:57.822Z,12.68
2023-02-21T01:51:50.084Z,11.07
2023-02-21T01:54:37.452Z,9.70
2023-02-21T01:57:24.318Z,12.93
2023-02-21T02:00:12.177Z,14.77
2023-02-21T02:03:06.072Z,11.70
2023-02-21T02:05:51.841Z,10.80
2023-02-21T02:08:39.485Z,9.77
2023-02-21T02:11:54.273Z,13.32
2023-02-21T02:14:35.723Z,14.05
2023-02-21T02:17:11.975Z,14.45
2023-02-21T02:19:54.923Z,12.85
2023-02-21T02:22:43.348Z,13.30
2023-02-21T02:25:45.045Z,15.02
2023-02-21T02:28:32.841Z,10.75
2023-02-21T02:31:19.043Z,12.70
2023-02-21T02:33:57.637Z,10.38
2023-02-21T02:36:29.828Z,11.50
2023-02-21T02:39:29.855Z,11.88
2023-02-21T02:42:24.648Z,10.50
2023-02-21T02:45:09.900Z,13.00
2023-02-21T02:47:38.592Z,10.80
2023-02-21T02:50:08.179Z,13.13
2023-02-21T02:52:36.710Z,13.52
2023-02-21T02:55:20.986Z,16.23
2023-02-21T02:57:48.744Z,14.73
2023-02-21T03:00:15.522Z,15.00
2023-02-21T03:02:51.136Z,16.77
2023-02-21T03:05:31.116Z,13.55
2023-02-21T03:08:11.822Z,14.20
2023-02-21T03:10:50.122Z,11.25
2023-02-21T03:13:19.481Z,14.48
2023-02-21T03:15:55.575Z,12.15
2023-02-21T03:18:35.814Z,12.35
2023-02-21T03:21:07.383Z,8.57
2023-02-21T03:23:35.940Z,15.40
2023-02-21T03:26:06.842Z,10.18
2023-02-21T03:28:35.436Z,14.48
2023-02-21T03:31:05.403Z,14.02
2023-02-21T03:33:32.488Z,13.13
2023-02-21T03:36:00.268Z,13.32
2023-02-21T03:38:31.219Z,12.38
2023-02-21T03:40:57.717Z,18.55
2023-02-21T03:43:24.053Z,14.38
2023-02-21T03:45:50.369Z,13.23
2023-02-21T03:48:26.184Z,14.18
2023-02-21T03:50:56.397Z,14.88
2023-02-21T03:53:22.692Z,12.20
2023-02-21T03:55:49.092Z,9.63
2023-02-21T03:58:15.385Z,11.35
2023-02-21T04:00:41.706Z,17.00
2023-02-21T04:03:08.069Z,12.10
2023-02-21T04:05:34.368Z,11.27
2023-02-21T04:08:00.958Z,14.32
2023-02-21T04:10:27.277Z,12.40
2023-02-21T04:12:53.561Z,16.40
2023-02-21T04:15:19.867Z,17.73
2023-02-21T04:17:46.277Z,16.05
2023-02-21T04:20:15.065Z,16.50
2023-02-21T04:22:41.386Z,18.10
2023-02-21T04:25:08.127Z,13.68
2023-02-21T04:27:37.431Z,20.08
2023-02-21T04:30:03.944Z,13.70
2023-02-21T04:32:30.370Z,15.43
2023-02-21T04:34:56.722Z,18.20
2023-02-21T04:37:23.059Z,14.27
2023-02-21T04:39:49.415Z,16.48
2023-02-21T04:42:15.867Z,17.77
2023-02-21T04:44:44.735Z,17.10
2023-02-21T04:47:15.395Z,18.27
2023-02-21T04:49:41.679Z,17.77
2023-02-21T04:52:07.958Z,19.30
2023-02-21T04:54:34.270Z,20.05
2023-02-21T04:57:00.645Z,14.40
2023-02-21T04:59:27.477Z,19.75
2023-02-21T05:01:53.786Z,18.60
2023-02-21T05:04:20.265Z,19.20
2023-02-21T05:06:46.633Z,19.42
2023-02-21T05:09:12.924Z,18.23
2023-02-21T05:11:39.222Z,18.48
2023-02-21T05:14:05.557Z,19.23
2023-02-21T05:16:32.041Z,19.75
2023-02-21T05:18:58.361Z,19.75
2023-02-21T05:21:24.686Z,12.98
2023-02-21T05:23:56.948Z,15.73
2023-02-21T05:26:30.823Z,19.52
2023-02-21T05:28:57.164Z,15.65
2023-02-21T05:31:23.614Z,18.05
2023-02-21T05:33:50.017Z,19.55
2023-02-21T05:36:17.718Z,18.48
2023-02-21T05:38:48.896Z,19.20
2023-02-21T05:41:16.628Z,18.38
2023-02-21T05:43:47.244Z,19.85
2023-02-21T05:46:23.601Z,18.75
2023-02-21T05:48:50.267Z,19.75
2023-02-21T05:51:17.288Z,19.63
2023-02-21T05:53:43.709Z,18.85
2023-02-21T05:56:10.726Z,18.65
2023-02-21T05:58:37.311Z,19.20
2023-02-21T06:01:04.406Z,20.67
2023-02-21T06:03:30.709Z,18.77
2023-02-21T06:05:57.026Z,17.58
2023-02-21T06:08:23.303Z,19.52
2023-02-21T06:10:49.620Z,20.08
2023-02-21T06:13:15.953Z,19.80
2023-02-21T06:15:42.447Z,14.60
2023-02-21T06:18:09.013Z,20.60
2023-02-21T06:20:35.309Z,22.65
2023-02-21T06:23:01.622Z,19.08
2023-02-21T06:25:27.926Z,20.63
2023-02-21T06:27:54.315Z,19.10
2023-02-21T06:30:22.857Z,16.67
2023-02-21T06:32:49.498Z,17.40
2023-02-21T06:35:15.836Z,17.23
2023-02-21T06:37:42.525Z,15.75
2023-02-21T06:40:09.257Z,12.82
2023-02-21T06:42:36.968Z,18.17
2023-02-21T06:45:03.738Z,19.02
2023-02-21T06:47:30.062Z,19.15
2023-02-21T06:49:56.376Z,16.55
2023-02-21T06:52:22.723Z,14.95
2023-02-21T06:54:52.021Z,15.32
2023-02-21T06:57:18.542Z,14.50
2023-02-21T06:59:44.905Z,15.40
2023-02-21T07:02:20.023Z,13.75
2023-02-21T07:04:47.263Z,16.73
2023-02-21T07:07:14.483Z,18.27
2023-02-21T07:09:40.789Z,19.30
2023-02-21T07:12:08.625Z,19.10
2023-02-21T07:14:35.144Z,17.77
2023-02-21T07:17:01.469Z,19.00
2023-02-21T07:19:27.826Z,16.92
2023-02-21T07:21:54.159Z,17.50
2023-02-21T07:24:20.516Z,15.75
2023-02-21T07:26:46.893Z,11.30
2023-02-21T07:29:13.352Z,11.10
2023-02-21T07:31:39.786Z,13.85
2023-02-21T07:34:06.262Z,15.20
2023-02-21T07:36:32.613Z,11.23
2023-02-21T07:38:58.900Z,15.50
2023-02-21T07:41:25.229Z,15.98
2023-02-21T07:43:51.562Z,12.88
2023-02-21T07:46:18.248Z,13.05
2023-02-21T07:48:44.730Z,14.55
2023-02-21T07:51:11.029Z,9.77
2023-02-21T07:53:37.372Z,11.18
2023-02-21T07:56:04.770Z,15.15
2023-02-21T07:58:32.367Z,15.27
2023-02-21T08:00:58.707Z,14.73
2023-02-21T08:03:25.057Z,16.42
2023-02-21T08:05:51.480Z,16.13
2023-02-21T08:08:17.932Z,15.57
2023-02-21T08:10:44.338Z,14.55
2023-02-21T08:13:10.688Z,14.75
2023-02-21T08:15:37.089Z,15.55
2023-02-21T08:18:03.484Z,17.58
2023-02-21T08:20:29.793Z,16.95
2023-02-21T08:22:56.809Z,17.95
2023-02-21T08:25:23.181Z,19.45
2023-02-21T08:27:54.563Z,19.40
2023-02-21T08:30:21.131Z,17.33
2023-02-21T08:32:48.180Z,17.13
2023-02-21T08:35:15.710Z,16.80
2023-02-21T08:37:46.977Z,18.98
2023-02-21T08:40:14.111Z,20.13
2023-02-21T08:42:40.901Z,19.52
2023-02-21T08:45:10.691Z,20.50
2023-02-21T08:47:37.028Z,16.73
2023-02-21T08:50:03.679Z,13.40
2023-02-21T08:52:29.983Z,17.20
2023-02-21T08:54:56.308Z,16.60
2023-02-21T08:57:22.602Z,15.95
2023-02-21T08:59:49.927Z,17.05
2023-02-21T09:02:22.366Z,15.70
2023-02-21T09:04:49.100Z,11.30
2023-02-21T09:07:17.245Z,16.20
2023-02-21T09:09:43.685Z,10.65
2023-02-21T09:12:10.630Z,14.93
2023-02-21T09:14:42.021Z,16.08
2023-02-21T09:17:10.726Z,16.98
2023-02-21T09:19:37.156Z,14.40
2023-02-21T09:22:06.162Z,16.05
2023-02-21T09:24:32.568Z,12.55
2023-02-21T09:27:02.896Z,13.68
2023-02-21T09:29:44.929Z,13.23
2023-02-21T09:32:11.639Z,12.73
2023-02-21T09:34:37.974Z,13.20
2023-02-21T09:37:05.940Z,11.40
2023-02-21T09:39:32.268Z,8.60
2023-02-21T09:41:58.849Z,8.38
2023-02-21T09:44:28.491Z,10.10
2023-02-21T09:46:59.781Z,10.48
2023-02-21T09:49:30.223Z,10.95
2023-02-21T09:51:57.966Z,9.38
2023-02-21T09:54:26.261Z,10.27
2023-02-21T09:56:54.521Z,11.05
2023-02-21T09:59:20.808Z,10.65
2023-02-21T10:02:00.807Z,12.63
2023-02-21T10:04:55.294Z,8.45
2023-02-21T10:07:40.554Z,10.07
2023-02-21T10:10:17.471Z,8.05
2023-02-21T10:12:46.541Z,6.95
2023-02-21T10:15:37.030Z,6.60
2023-02-21T10:18:24.188Z,6.82
2023-02-21T10:20:59.406Z,5.53
2023-02-21T10:23:40.632Z,5.63
2023-02-21T10:28:36.948Z,6.85
2023-02-21T10:31:08.852Z,6.25
2023-02-21T10:33:38.250Z,6.82
2023-02-21T10:36:11.763Z,6.72
2023-02-21T10:38:40.875Z,6.80
2023-02-21T10:41:07.924Z,6.63
2023-02-21T10:43:39.893Z,7.28
2023-02-21T10:46:14.421Z,7.50
2023-02-21T10:48:42.863Z,5.63
2023-02-21T10:51:30.407Z,6.05
2023-02-21T10:54:19.489Z,6.20
2023-02-21T10:56:46.427Z,7.15
2023-02-21T10:59:22.887Z,6.28
2023-02-21T11:01:50.802Z,5.97
2023-02-21T11:04:20.050Z,6.10
2023-02-21T11:06:55.708Z,6.72
2023-02-21T11:09:27.834Z,5.47
2023-02-21T11:12:04.987Z,5.32
2023-02-21T11:14:33.268Z,5.70
2023-02-21T11:17:14.163Z,6.03
2023-02-21T11:22:16.967Z,5.05
2023-02-21T11:24:49.574Z,4.38
2023-02-21T11:27:16.847Z,5.35
2023-02-21T11:29:50.253Z,5.47
2023-02-21T11:32:25.688Z,5.82
2023-02-21T11:35:07.655Z,4.80
2023-02-21T11:37:46.027Z,5.95
2023-02-21T11:40:32.598Z,4.95
2023-02-21T11:43:16.952Z,5.85
2023-02-21T11:45:55.291Z,6.30
2023-02-21T11:48:30.927Z,5.82
2023-02-21T11:50:59.573Z,7.10
2023-02-21T11:53:32.185Z,7.00
2023-02-21T11:56:28.243Z,6.90
2023-02-21T11:59:03.117Z,7.50
2023-02-21T12:01:34.342Z,7.72
2023-02-21T12:04:12.108Z,8.38
2023-02-21T12:07:05.717Z,7.50
2023-02-21T12:10:26.377Z,6.82
2023-02-21T12:12:58.890Z,7.27
2023-02-21T12:15:47.199Z,7.10
2023-02-21T12:18:26.036Z,7.40
2023-02-21T12:21:05.705Z,7.90
2023-02-21T12:23:48.533Z,7.15
2023-02-21T12:26:43.111Z,7.20
2023-02-21T12:29:21.440Z,6.35
2023-02-21T12:32:12.056Z,7.40
2023-02-21T12:35:27.445Z,6.00
2023-02-21T12:38:04.436Z,6.95
2023-02-21T12:40:33.711Z,6.95
2023-02-21T12:43:21.268Z,7.72
2023-02-21T12:46:12.570Z,7.60
2023-02-21T12:51:21.076Z,7.32
2023-02-21T12:54:08.046Z,8.13
2023-02-21T12:57:13.509Z,8.40
2023-02-21T12:59:51.340Z,10.45
2023-02-21T13:02:30.083Z,9.02
2023-02-21T13:05:06.346Z,8.90
2023-02-21T13:07:48.810Z,8.38
2023-02-21T13:10:19.944Z,7.55
2023-02-21T13:12:50.731Z,7.70
2023-02-21T13:15:25.943Z,7.32
2023-02-21T13:18:04.732Z,7.30
2023-02-21T13:20:39.895Z,7.20
2023-02-21T13:23:44.576Z,7.03
2023-02-21T13:26:22.767Z,7.28
2023-02-21T13:28:57.383Z,7.35
2023-02-21T13:31:36.925Z,7.80
2023-02-21T13:34:07.452Z,7.57
2023-02-21T13:36:39.843Z,8.38
2023-02-21T13:39:09.165Z,8.60
2023-02-21T13:41:43.874Z,7.65
2023-02-21T13:44:30.256Z,9.07
2023-02-21T13:47:13.740Z,9.10
2023-02-21T13:49:48.162Z,8.18
2023-02-21T13:52:23.521Z,7.32
2023-02-21T13:55:15.139Z,9.38
2023-02-21T13:57:44.534Z,8.18
2023-02-21T14:00:26.703Z,7.70
2023-02-21T14:03:12.529Z,7.25
2023-02-21T14:05:44.922Z,6.40
2023-02-21T14:08:33.469Z,7.18
2023-02-21T14:11:20.089Z,7.50
2023-02-21T14:13:59.961Z,8.23
2023-02-21T14:16:33.164Z,7.22
2023-02-21T14:19:08.369Z,8.55
2023-02-21T14:21:49.304Z,8.15
2023-02-21T14:24:24.327Z,7.60
2023-02-21T14:26:53.625Z,8.52
2023-02-21T14:29:38.699Z,10.48
2023-02-21T14:32:07.850Z,9.05
2023-02-21T14:34:54.350Z,8.40
2023-02-21T14:37:30.031Z,9.20
2023-02-21T14:40:14.058Z,9.45
2023-02-21T14:43:21.382Z,8.50
2023-02-21T14:46:10.527Z,10.57
2023-02-21T14:49:22.108Z,10.35
2023-02-21T14:52:07.020Z,8.95
2023-02-21T14:54:51.953Z,8.88
2023-02-21T14:57:36.586Z,8.35
2023-02-21T15:00:16.095Z,8.95
2023-02-21T15:03:06.263Z,9.18
2023-02-21T15:06:02.944Z,9.27
2023-02-21T15:08:40.411Z,9.73
2023-02-21T15:11:18.853Z,9.13
2023-02-21T15:13:45.203Z,10.00
2023-02-21T15:16:15.836Z,8.88
2023-02-21T15:19:00.228Z,11.20
2023-02-21T15:21:26.964Z,8.57
2023-02-21T15:24:14.900Z,9.68
2023-02-21T15:26:41.541Z,10.43
2023-02-21T15:29:12.091Z,8.68
2023-02-21T15:31:50.889Z,8.90
2023-02-21T15:34:22.274Z,8.82
2023-02-21T15:37:04.483Z,8.75
2023-02-21T15:39:36.013Z,8.35
2023-02-21T15:42:06.653Z,8.60
2023-02-21T15:44:43.687Z,9.70
2023-02-21T15:47:15.580Z,9.60
2023-02-21T15:49:47.478Z,8.50
2023-02-21T15:52:46.322Z,9.15
2023-02-21T15:55:20.441Z,9.38
2023-02-21T15:58:04.060Z,9.95
2023-02-21T16:00:36.259Z,8.77
2023-02-21T16:03:27.376Z,9.00
2023-02-21T16:05:56.169Z,8.50
2023-02-21T16:08:22.667Z,9.00
2023-02-21T16:10:49.240Z,10.77
2023-02-21T16:13:15.697Z,9.75
2023-02-21T16:15:43.218Z,9.77
2023-02-21T16:18:16.889Z,9.48
2023-02-21T16:20:44.729Z,8.40
2023-02-21T16:23:20.100Z,8.90
2023-02-21T16:26:16.722Z,8.93
2023-02-21T16:28:44.880Z,8.48
2023-02-21T16:31:32.697Z,7.80
2023-02-21T16:33:59.153Z,8.77
2023-02-21T16:36:29.265Z,8.63
2023-02-21T16:38:56.662Z,8.98
2023-02-21T16:41:24.082Z,8.07
2023-02-21T16:43:51.084Z,8.75
2023-02-21T16:46:27.105Z,9.70
2023-02-21T16:48:55.854Z,10.50
2023-02-21T16:51:22.664Z,9.85
2023-02-21T16:53:49.160Z,10.30
2023-02-21T16:56:16.125Z,9.07
2023-02-21T16:58:46.583Z,9.07
2023-02-21T17:01:16.121Z,10.05
2023-02-21T17:03:42.646Z,7.78
2023-02-21T17:06:16.627Z,8.00
2023-02-21T17:08:42.951Z,7.80
2023-02-21T17:11:09.334Z,9.88
2023-02-21T17:13:36.365Z,10.15
2023-02-21T17:16:02.892Z,8.85
2023-02-21T17:18:31.254Z,8.82
2023-02-21T17:20:59.271Z,8.57
2023-02-21T17:23:25.822Z,8.77
2023-02-21T17:25:52.146Z,7.82
2023-02-21T17:28:18.847Z,8.70
2023-02-21T17:30:45.222Z,7.97
2023-02-21T17:33:11.536Z,8.15
2023-02-21T17:35:37.851Z,8.05
2023-02-21T17:38:05.049Z,8.05
2023-02-21T17:40:31.434Z,6.95
2023-02-21T17:42:58.187Z,7.10
2023-02-21T17:45:26.147Z,7.32
2023-02-21T17:47:54.708Z,7.45
2023-02-21T17:50:21.040Z,7.30
2023-02-21T17:52:48.023Z,6.50
2023-02-21T17:55:20.996Z,7.25
2023-02-21T17:57:47.342Z,6.10
2023-02-21T18:00:21.478Z,6.43
2023-02-21T18:02:49.012Z,7.07
2023-02-21T18:05:15.376Z,6.57
2023-02-21T18:07:41.737Z,7.63
2023-02-21T18:10:08.959Z,7.00
2023-02-21T18:12:35.461Z,6.90
2023-02-21T18:15:02.121Z,7.65
2023-02-21T18:17:28.502Z,6.07
2023-02-21T18:19:54.918Z,6.75
2023-02-21T18:22:21.229Z,6.47
2023-02-21T18:24:47.792Z,6.70
2023-02-21T18:27:15.472Z,6.88
2023-02-21T18:29:41.764Z,7.18
2023-02-21T18:32:08.191Z,6.50
2023-02-21T18:34:34.536Z,7.13
2023-02-21T18:37:00.982Z,6.97
2023-02-21T18:39:27.394Z,7.90
2023-02-21T18:41:53.717Z,7.30
2023-02-21T18:44:20.065Z,8.55
2023-02-21T18:46:54.458Z,8.38
2023-02-21T18:49:24.264Z,9.05
2023-02-21T18:51:50.774Z,9.90
2023-02-21T18:54:18.447Z,9.98
2023-02-21T18:56:49.905Z,9.25
2023-02-21T18:59:20.766Z,9.68
2023-02-21T19:01:52.052Z,10.13
2023-02-21T19:04:18.958Z,9.50
2023-02-21T19:06:45.741Z,10.90
2023-02-21T19:09:13.052Z,10.15
2023-02-21T19:11:39.660Z,11.38
2023-02-21T19:14:06.158Z,11.57
2023-02-21T19:16:33.302Z,11.15
2023-02-21T19:18:59.969Z,10.23
2023-02-21T19:21:26.829Z,11.05
2023-02-21T19:23:53.286Z,10.48
2023-02-21T19:26:19.657Z,11.27
2023-02-21T19:28:46.707Z,11.68
2023-02-21T19:31:17.306Z,11.38
2023-02-21T19:33:44.295Z,11.90
2023-02-21T19:36:11.629Z,11.90
2023-02-21T19:38:37.933Z,12.50
2023-02-21T19:41:06.465Z,11.68
2023-02-21T19:43:33.922Z,11.82
2023-02-21T19:46:00.784Z,11.55
2023-02-21T19:48:27.875Z,12.20
2023-02-21T19:50:54.387Z,11.77
2023-02-21T19:53:20.783Z,12.57
2023-02-21T19:55:47.795Z,11.68
2023-02-21T19:58:14.295Z,12.30
2023-02-21T20:00:43.660Z,11.77
2023-02-21T20:03:11.132Z,12.43
2023-02-21T20:05:37.664Z,11.00
2023-02-21T20:08:04.416Z,11.27
2023-02-21T20:10:30.891Z,11.57
2023-02-21T20:12:58.023Z,11.82
2023-02-21T20:15:24.999Z,11.48
2023-02-21T20:17:53.246Z,11.75
2023-02-21T20:20:19.819Z,10.65
2023-02-21T20:22:46.177Z,11.20
2023-02-21T20:25:12.505Z,10.98
2023-02-21T20:27:38.809Z,11.00
2023-02-21T20:30:05.928Z,10.27
2023-02-21T20:32:32.334Z,11.50
2023-02-21T20:34:58.950Z,11.57
2023-02-21T20:37:26.526Z,11.40
2023-02-21T20:39:53.219Z,12.05
2023-02-21T20:42:22.501Z,11.75
2023-02-21T20:44:49.192Z,12.52
2023-02-21T20:47:15.662Z,12.15
2023-02-21T20:49:45.653Z,11.07
2023-02-21T20:52:13.626Z,11.52
2023-02-21T20:54:40.400Z,11.15
2023-02-21T20:57:08.376Z,10.48
2023-02-21T20:59:37.389Z,12.13
2023-02-21T21:02:04.202Z,11.25
2023-02-21T21:04:34.989Z,12.02
2023-02-21T21:07:06.392Z,10.82
2023-02-21T21:09:37.341Z,10.85
2023-02-21T21:12:14.273Z,11.50
2023-02-21T21:14:43.282Z,11.05
2023-02-21T21:17:13.183Z,11.93
2023-02-21T21:19:41.354Z,12.38
2023-02-21T21:22:10.344Z,12.00
2023-02-21T21:24:38.279Z,11.02
2023-02-21T21:27:08.780Z,11.70
2023-02-21T21:29:42.912Z,12.05
2023-02-21T21:32:14.776Z,11.98
2023-02-21T21:34:46.661Z,12.15
2023-02-21T21:37:14.377Z,12.70
2023-02-21T21:39:54.153Z,12.88
2023-02-21T21:42:24.861Z,12.13
2023-02-21T21:44:55.746Z,12.05
2023-02-21T21:47:23.526Z,11.93
2023-02-21T21:49:50.114Z,11.60
2023-02-21T21:52:18.846Z,12.27
2023-02-21T21:54:46.402Z,11.90
2023-02-21T21:57:16.199Z,11.02
2023-02-21T21:59:43.612Z,12.07
2023-02-21T22:02:11.248Z,11.93
2023-02-21T22:04:39.460Z,12.30
2023-02-21T22:07:08.803Z,12.45
2023-02-21T22:09:35.759Z,13.05
2023-02-21T22:12:04.446Z,11.27
2023-02-21T22:14:30.847Z,12.52
2023-02-21T22:16:57.836Z,11.80
2023-02-21T22:19:25.587Z,12.20
2023-02-21T22:21:55.588Z,11.50
2023-02-21T22:24:23.697Z,13.07
2023-02-21T22:26:54.221Z,12.15
2023-02-21T22:29:22.219Z,11.45
2023-02-21T22:31:50.753Z,11.68
2023-02-21T22:34:24.189Z,10.65
2023-02-21T22:36:52.482Z,10.93
2023-02-21T22:39:19.826Z,10.80
2023-02-21T22:41:48.867Z,11.07
2023-02-21T22:44:15.793Z,11.93
2023-02-21T22:47:00.706Z,11.05
2023-02-21T22:49:27.926Z,11.05
2023-02-21T22:51:54.749Z,12.05
2023-02-21T22:54:21.257Z,10.25
2023-02-21T22:56:51.087Z,11.60
2023-02-21T22:59:19.682Z,10.73
2023-02-21T23:01:46.299Z,10.68
2023-02-21T23:04:25.095Z,11.02
2023-02-21T23:06:53.609Z,10.40
2023-02-21T23:09:20.325Z,10.32
2023-02-21T23:11:49.223Z,10.70
2023-02-21T23:14:22.112Z,10.23
2023-02-21T23:16:49.017Z,10.25
2023-02-21T23:19:15.337Z,10.98
2023-02-21T23:21:51.046Z,9.93
2023-02-21T23:24:20.060Z,11.60
2023-02-21T23:26:47.620Z,10.57
2023-02-21T23:29:16.073Z,10.93
2023-02-21T23:31:42.521Z,11.27
2023-02-21T23:34:09.986Z,12.80
2023-02-21T23:36:39.354Z,11.73
2023-02-21T23:39:10.534Z,12.75
2023-02-21T23:41:40.610Z,11.73
2023-02-21T23:44:10.727Z,10.80
2023-02-21T23:46:42.281Z,11.48
2023-02-21T23:49:15.171Z,11.25
2023-02-21T23:51:42.461Z,11.43
2023-02-21T23:54:10.209Z,10.18
2023-02-21T23:56:37.275Z,11.95
2023-02-21T23:59:05.839Z,11.25
